Time;durP1;ratioP1;P1;durP2;ratioP2;P2;SDS_P1;SDS_P2;PMS_P1;PMS_P2;Temp;Humidity;BMP_temperature;BMP_pressure;BME280_temperature;BME280_humidity;BME280_pressure;Samples;Min_cycle;Max_cycle;Signal;HPM_P1;HPM_P2
2022/02/12 00:00:24;;;;;;;11.02;1.35;;;;;;;;;;6118642;23;20089;-63
2022/02/12 00:02:54;;;;;;;5.57;0.80;;;;;;;;;;6118913;23;20016;-63
2022/02/12 00:05:24;;;;;;;10.75;1.77;;;;;;;;;;6119491;23;20009;-62
2022/02/12 00:07:51;;;;;;;5.03;0.80;;;;;;;;;;6117819;23;20453;-62
2022/02/12 00:10:17;;;;;;;7.70;1.08;;;;;;;;;;6120517;23;20457;-62
2022/02/12 00:12:42;;;;;;;15.45;2.47;;;;;;;;;;6119787;23;20012;-63
2022/02/12 00:15:08;;;;;;;9.73;0.90;;;;;;;;;;6119619;23;20446;-63
2022/02/12 00:17:34;;;;;;;4.53;1.30;;;;;;;;;;6118107;23;20017;-63
2022/02/12 00:19:59;;;;;;;4.43;0.73;;;;;;;;;;6117989;23;20018;-63
2022/02/12 00:22:25;;;;;;;3.83;0.77;;;;;;;;;;6119617;23;20022;-62
2022/02/12 00:24:51;;;;;;;5.05;0.80;;;;;;;;;;6118562;23;20016;-62
2022/02/12 00:27:16;;;;;;;3.50;0.68;;;;;;;;;;6119160;23;20032;-63
2022/02/12 00:29:42;;;;;;;10.43;1.52;;;;;;;;;;6120289;23;20050;-62
2022/02/12 00:32:08;;;;;;;8.13;1.00;;;;;;;;;;6119151;23;20010;-62
2022/02/12 00:34:33;;;;;;;11.60;1.83;;;;;;;;;;6119177;23;20437;-63
2022/02/12 00:36:59;;;;;;;4.15;0.90;;;;;;;;;;6119189;23;20010;-63
2022/02/12 00:39:24;;;;;;;6.10;0.77;;;;;;;;;;6120012;23;20134;-62
2022/02/12 00:41:50;;;;;;;3.83;0.75;;;;;;;;;;6119055;23;20017;-62
2022/02/12 00:44:15;;;;;;;7.47;0.63;;;;;;;;;;6118976;23;20025;-61
2022/02/12 00:46:41;;;;;;;5.32;0.85;;;;;;;;;;6119788;23;20010;-62
2022/02/12 00:49:06;;;;;;;5.35;0.82;;;;;;;;;;6118031;23;20068;-62
2022/02/12 00:51:33;;;;;;;10.05;1.25;;;;;;;;;;6119520;23;20009;-64
2022/02/12 00:53:59;;;;;;;9.52;0.93;;;;;;;;;;6119117;23;20009;-61
2022/02/12 00:56:24;;;;;;;4.25;0.80;;;;;;;;;;6119173;23;20076;-63
2022/02/12 00:58:51;;;;;;;5.13;1.15;;;;;;;;;;6119438;23;20408;-63
2022/02/12 01:01:17;;;;;;;5.32;0.93;;;;;;;;;;6137221;23;20075;-62
2022/02/12 01:03:43;;;;;;;6.88;1.05;;;;;;;;;;6149026;23;20100;-62
2022/02/12 01:06:08;;;;;;;10.25;1.25;;;;;;;;;;6148631;23;20009;-62
2022/02/12 01:08:34;;;;;;;5.75;0.70;;;;;;;;;;6148130;23;20005;-62
2022/02/12 01:11:00;;;;;;;12.35;1.10;;;;;;;;;;6148900;23;20005;-62
2022/02/12 01:13:25;;;;;;;8.02;1.38;;;;;;;;;;6148404;23;20416;-62
2022/02/12 01:15:50;;;;;;;4.28;0.60;;;;;;;;;;6148653;23;20060;-63
2022/02/12 01:18:16;;;;;;;13.20;1.13;;;;;;;;;;6148069;23;20055;-62
2022/02/12 01:20:41;;;;;;;8.43;0.88;;;;;;;;;;6148394;23;20041;-62
2022/02/12 01:23:07;;;;;;;0.82;0.50;;;;;;;;;;6147337;23;20019;-62
2022/02/12 01:25:33;;;;;;;7.53;0.82;;;;;;;;;;6148133;23;20114;-61
2022/02/12 01:27:59;;;;;;;5.00;0.95;;;;;;;;;;6148611;23;20365;-59
2022/02/12 01:30:26;;;;;;;4.43;0.43;;;;;;;;;;6148004;23;20013;-63
2022/02/12 01:32:53;;;;;;;3.08;1.35;;;;;;;;;;6148209;23;20084;-62
2022/02/12 01:35:19;;;;;;;5.32;1.70;;;;;;;;;;6147843;23;20080;-63
2022/02/12 01:37:45;;;;;;;6.00;0.68;;;;;;;;;;6147699;23;20001;-62
2022/02/12 01:40:11;;;;;;;4.25;0.52;;;;;;;;;;6147513;23;20096;-63
2022/02/12 01:42:37;;;;;;;4.40;0.95;;;;;;;;;;6121700;23;20414;-63
2022/02/12 01:45:03;;;;;;;7.82;2.22;;;;;;;;;;6122678;23;20064;-61
2022/02/12 01:47:29;;;;;;;2.28;0.43;;;;;;;;;;6147219;23;20392;-62
2022/02/12 01:49:55;;;;;;;3.33;0.60;;;;;;;;;;6148017;23;20287;-62
2022/02/12 01:52:22;;;;;;;9.75;0.63;;;;;;;;;;6146893;23;20054;-62
2022/02/12 01:54:48;;;;;;;2.22;0.47;;;;;;;;;;6147604;23;20009;-61
2022/02/12 01:57:14;;;;;;;7.82;1.20;;;;;;;;;;6148384;23;20043;-62
2022/02/12 01:59:42;;;;;;;5.32;0.50;;;;;;;;;;6147669;23;20356;-63
2022/02/12 02:02:09;;;;;;;7.65;0.50;;;;;;;;;;6097326;23;20009;-60
2022/02/12 02:04:38;;;;;;;2.67;0.50;;;;;;;;;;6147944;23;20077;-61
2022/02/12 02:07:03;;;;;;;6.82;1.23;;;;;;;;;;6147785;23;20029;-60
2022/02/12 02:09:30;;;;;;;6.53;1.23;;;;;;;;;;6148389;23;20006;-60
2022/02/12 02:11:56;;;;;;;6.10;0.80;;;;;;;;;;6148133;23;20095;-60
2022/02/12 02:14:38;;;;;;;5.10;0.60;;;;;;;;;;6147545;23;20010;-59
2022/02/12 02:17:05;;;;;;;6.93;0.70;;;;;;;;;;6147201;23;20009;-60
2022/02/12 02:19:32;;;;;;;3.47;0.82;;;;;;;;;;6147975;23;20056;-59
2022/02/12 02:21:58;;;;;;;6.47;1.00;;;;;;;;;;6147422;23;20010;-60
2022/02/12 02:24:24;;;;;;;4.07;0.70;;;;;;;;;;6147318;23;20009;-60
2022/02/12 02:26:50;;;;;;;6.40;0.60;;;;;;;;;;6121190;23;20018;-60
2022/02/12 02:29:16;;;;;;;9.60;1.00;;;;;;;;;;6147387;23;20067;-59
2022/02/12 02:31:41;;;;;;;12.48;1.42;;;;;;;;;;6147034;23;20017;-60
2022/02/12 02:34:12;;;;;;;3.75;0.68;;;;;;;;;;6147530;23;20013;-59
2022/02/12 02:36:38;;;;;;;7.80;0.90;;;;;;;;;;6147960;23;20020;-61
2022/02/12 02:39:05;;;;;;;9.75;1.58;;;;;;;;;;6148590;23;20060;-60
2022/02/12 02:41:31;;;;;;;2.88;0.70;;;;;;;;;;6147605;23;20287;-59
2022/02/12 02:43:57;;;;;;;9.15;0.90;;;;;;;;;;6147791;23;20009;-60
2022/02/12 02:46:22;;;;;;;6.50;0.63;;;;;;;;;;6147218;23;20051;-60
2022/02/12 02:48:48;;;;;;;3.38;0.60;;;;;;;;;;6147014;23;20013;-60
2022/02/12 02:56:42;;;;;;;2.90;0.43;;;;;;;;;;6124946;23;20059;-59
2022/02/12 02:59:08;;;;;;;1.77;0.50;;;;;;;;;;6147347;23;20124;-59
2022/02/12 03:01:35;;;;;;;5.88;1.00;;;;;;;;;;6146066;23;20017;-59
2022/02/12 03:04:02;;;;;;;8.80;0.88;;;;;;;;;;6147429;23;20321;-59
2022/02/12 03:06:28;;;;;;;6.38;0.90;;;;;;;;;;6147269;23;20430;-59
2022/02/12 03:08:55;;;;;;;4.22;1.15;;;;;;;;;;6148441;23;20017;-59
2022/02/12 03:11:21;;;;;;;9.52;0.88;;;;;;;;;;6146256;23;20013;-59
2022/02/12 03:13:49;;;;;;;6.00;0.80;;;;;;;;;;6146494;23;20014;-59
2022/02/12 03:16:15;;;;;;;5.30;0.50;;;;;;;;;;6147250;23;20013;-59
2022/02/12 03:18:44;;;;;;;5.43;0.90;;;;;;;;;;6147727;23;20079;-59
2022/02/12 03:21:10;;;;;;;8.88;0.80;;;;;;;;;;6096771;23;20002;-59
2022/02/12 03:23:36;;;;;;;1.90;0.40;;;;;;;;;;6146441;23;20457;-60
2022/02/12 03:26:01;;;;;;;8.63;0.73;;;;;;;;;;6147234;23;20005;-59
2022/02/12 03:28:27;;;;;;;2.15;0.38;;;;;;;;;;6143693;23;20010;-59
2022/02/12 03:30:52;;;;;;;2.72;0.35;;;;;;;;;;6121645;23;20005;-59
2022/02/12 03:33:18;;;;;;;11.63;0.88;;;;;;;;;;6147387;23;20357;-59
2022/02/12 03:35:45;;;;;;;8.77;0.90;;;;;;;;;;6147210;23;20037;-58
2022/02/12 03:38:16;;;;;;;10.85;0.90;;;;;;;;;;6147372;23;20008;-60
2022/02/12 03:40:47;;;;;;;10.52;0.98;;;;;;;;;;6147279;23;20037;-59
2022/02/12 03:43:13;;;;;;;5.43;1.15;;;;;;;;;;6146065;23;20001;-59
2022/02/12 03:45:40;;;;;;;3.67;0.70;;;;;;;;;;6120585;23;20384;-60
2022/02/12 03:48:06;;;;;;;2.63;0.43;;;;;;;;;;6120516;23;20539;-60
2022/02/12 03:50:33;;;;;;;4.35;0.60;;;;;;;;;;6147600;23;20017;-60
2022/02/12 03:53:00;;;;;;;12.63;0.73;;;;;;;;;;6120000;23;20020;-60
2022/02/12 03:55:26;;;;;;;7.05;0.60;;;;;;;;;;6146961;23;20013;-60
2022/02/12 03:57:52;;;;;;;2.90;0.47;;;;;;;;;;6145986;23;20080;-60
2022/02/12 04:00:18;;;;;;;3.63;0.95;;;;;;;;;;6146027;23;20012;-59
2022/02/12 04:02:44;;;;;;;6.40;0.55;;;;;;;;;;6146041;23;20033;-59
2022/02/12 04:05:11;;;;;;;7.57;0.70;;;;;;;;;;6146933;23;20009;-59
2022/02/12 04:07:40;;;;;;;0.63;0.40;;;;;;;;;;6095281;23;20448;-60
2022/02/12 04:10:06;;;;;;;2.00;0.32;;;;;;;;;;6147445;23;20073;-60
2022/02/12 04:12:32;;;;;;;1.13;0.30;;;;;;;;;;6146785;23;20009;-60
2022/02/12 04:14:57;;;;;;;6.50;0.70;;;;;;;;;;6146415;23;20480;-59
2022/02/12 04:17:24;;;;;;;3.55;0.47;;;;;;;;;;6144565;23;20009;-60
2022/02/12 04:19:51;;;;;;;6.50;0.98;;;;;;;;;;6146543;23;20068;-60
2022/02/12 04:22:16;;;;;;;13.63;0.65;;;;;;;;;;6146275;23;20361;-60
2022/02/12 04:24:42;;;;;;;9.20;0.60;;;;;;;;;;6148162;23;20012;-60
2022/02/12 04:27:07;;;;;;;1.77;0.50;;;;;;;;;;6148828;23;20009;-61
2022/02/12 04:29:33;;;;;;;5.18;0.68;;;;;;;;;;6147302;23;20005;-60
2022/02/12 04:31:58;;;;;;;6.50;1.55;;;;;;;;;;6148839;23;20014;-59
2022/02/12 04:34:24;;;;;;;1.05;0.40;;;;;;;;;;6148139;23;20345;-60
2022/02/12 04:36:50;;;;;;;11.85;0.63;;;;;;;;;;6148322;23;20059;-59
2022/02/12 04:39:16;;;;;;;4.82;0.40;;;;;;;;;;6148871;23;20084;-59
2022/02/12 04:41:42;;;;;;;8.48;0.70;;;;;;;;;;6148610;23;20472;-60
2022/02/12 04:44:07;;;;;;;3.47;0.40;;;;;;;;;;6148782;23;20009;-59
2022/02/12 04:46:33;;;;;;;5.25;0.70;;;;;;;;;;6149106;23;20041;-59
2022/02/12 04:48:58;;;;;;;2.70;0.60;;;;;;;;;;6147295;23;20465;-59
2022/02/12 04:51:24;;;;;;;3.05;0.50;;;;;;;;;;6147871;23;20001;-59
2022/02/12 04:53:51;;;;;;;6.82;0.68;;;;;;;;;;6148380;23;20048;-59
2022/02/12 04:56:18;;;;;;;1.45;0.50;;;;;;;;;;6122737;23;20009;-59
2022/02/12 04:58:43;;;;;;;4.53;0.50;;;;;;;;;;6148708;23;20013;-58
2022/02/12 05:01:20;;;;;;;2.00;0.43;;;;;;;;;;6148320;23;20009;-59
2022/02/12 05:03:49;;;;;;;1.55;0.40;;;;;;;;;;6148214;23;20543;-59
2022/02/12 05:06:20;;;;;;;1.25;0.20;;;;;;;;;;6147517;23;20110;-59
2022/02/12 05:08:46;;;;;;;2.35;0.40;;;;;;;;;;6148819;23;20623;-59
2022/02/12 05:11:12;;;;;;;2.80;0.35;;;;;;;;;;6148358;23;20256;-59
2022/02/12 05:13:38;;;;;;;1.33;0.35;;;;;;;;;;6149326;23;20085;-60
2022/02/12 05:16:05;;;;;;;1.08;0.60;;;;;;;;;;6120711;23;20009;-59
2022/02/12 05:18:30;;;;;;;0.30;0.20;;;;;;;;;;6121317;23;20659;-60
2022/02/12 05:20:58;;;;;;;0.90;0.20;;;;;;;;;;6147846;23;20289;-59
2022/02/12 05:23:25;;;;;;;2.72;0.45;;;;;;;;;;6147694;23;20467;-60
2022/02/12 05:25:50;;;;;;;7.78;0.68;;;;;;;;;;6148524;23;20060;-59
2022/02/12 05:28:16;;;;;;;2.22;0.40;;;;;;;;;;6147411;23;20013;-59
2022/02/12 05:30:43;;;;;;;2.45;0.30;;;;;;;;;;6148011;23;20009;-59
2022/02/12 05:33:09;;;;;;;2.38;0.35;;;;;;;;;;6147050;23;20017;-59
2022/02/12 05:35:34;;;;;;;2.83;0.63;;;;;;;;;;6147575;23;20010;-60
2022/02/12 05:38:00;;;;;;;3.35;0.30;;;;;;;;;;6147556;23;20400;-59
2022/02/12 05:40:25;;;;;;;1.90;0.40;;;;;;;;;;6146672;23;20421;-59
2022/02/12 05:42:51;;;;;;;3.53;0.43;;;;;;;;;;6148466;23;20013;-59
2022/02/12 05:45:17;;;;;;;3.20;0.35;;;;;;;;;;6147068;23;20020;-59
2022/02/12 05:47:42;;;;;;;2.75;0.22;;;;;;;;;;6147764;23;20016;-60
2022/02/12 05:50:09;;;;;;;2.03;0.32;;;;;;;;;;6146246;23;20025;-60
2022/02/12 05:52:37;;;;;;;0.88;0.22;;;;;;;;;;6147752;23;20036;-60
2022/02/12 05:55:03;;;;;;;2.83;0.55;;;;;;;;;;6148623;23;19998;-59
2022/02/12 05:57:29;;;;;;;2.13;0.30;;;;;;;;;;6147202;23;20035;-59
2022/02/12 05:59:55;;;;;;;2.55;0.40;;;;;;;;;;6148135;23;20030;-60
2022/02/12 06:02:21;;;;;;;0.17;0.17;;;;;;;;;;6147576;23;20401;-59
2022/02/12 06:04:46;;;;;;;2.10;0.20;;;;;;;;;;6120894;23;20429;-59
2022/02/12 06:07:12;;;;;;;0.95;0.17;;;;;;;;;;6148499;23;20085;-59
2022/02/12 06:09:37;;;;;;;3.45;0.55;;;;;;;;;;6147788;23;20029;-60
2022/02/12 06:12:04;;;;;;;0.80;0.20;;;;;;;;;;6147601;23;20016;-60
2022/02/12 06:14:31;;;;;;;0.80;0.20;;;;;;;;;;6147491;23;20076;-60
2022/02/12 06:16:58;;;;;;;2.28;0.22;;;;;;;;;;6146674;23;20001;-60
2022/02/12 06:19:24;;;;;;;3.70;0.60;;;;;;;;;;6147519;23;20016;-60
2022/02/12 06:21:50;;;;;;;3.00;0.50;;;;;;;;;;6121823;23;20016;-59
2022/02/12 06:24:16;;;;;;;0.50;0.30;;;;;;;;;;6146874;23;20017;-59
2022/02/12 06:26:46;;;;;;;4.00;0.63;;;;;;;;;;6146648;23;20463;-60
2022/02/12 06:29:13;;;;;;;0.98;0.20;;;;;;;;;;6147436;23;20009;-60
2022/02/12 06:31:39;;;;;;;1.33;0.20;;;;;;;;;;6146832;23;20029;-61
2022/02/12 06:34:05;;;;;;;0.55;0.10;;;;;;;;;;6147389;23;20012;-60
2022/02/12 06:36:30;;;;;;;3.63;0.43;;;;;;;;;;6147274;23;20068;-61
2022/02/12 06:38:55;;;;;;;0.77;0.17;;;;;;;;;;6147038;23;20009;-61
2022/02/12 06:41:21;;;;;;;0.20;0.20;;;;;;;;;;6147521;23;20485;-59
2022/02/12 06:43:46;;;;;;;1.00;0.20;;;;;;;;;;6146764;23;20033;-60
2022/02/12 06:46:13;;;;;;;3.42;0.38;;;;;;;;;;6147758;23;20433;-60
2022/02/12 06:48:39;;;;;;;0.57;0.20;;;;;;;;;;6146764;23;20006;-60
2022/02/12 06:51:05;;;;;;;0.43;0.30;;;;;;;;;;6146527;23;20080;-59
2022/02/12 06:53:33;;;;;;;0.57;0.30;;;;;;;;;;6146744;23;20089;-59
2022/02/12 06:56:01;;;;;;;0.20;0.20;;;;;;;;;;6147318;23;20009;-59
2022/02/12 06:58:27;;;;;;;1.55;0.22;;;;;;;;;;6147614;23;20084;-61
2022/02/12 07:00:52;;;;;;;2.00;0.20;;;;;;;;;;6146472;23;20041;-59
2022/02/12 07:03:18;;;;;;;3.78;0.20;;;;;;;;;;6147032;23;20056;-60
2022/02/12 07:05:44;;;;;;;2.55;0.82;;;;;;;;;;6146987;23;20479;-60
2022/02/12 07:08:09;;;;;;;1.10;0.47;;;;;;;;;;6146616;23;20013;-60
2022/02/12 07:10:36;;;;;;;1.10;0.20;;;;;;;;;;6147675;23;20090;-59
2022/02/12 07:13:02;;;;;;;1.50;0.38;;;;;;;;;;6146973;23;20067;-59
2022/02/12 07:15:28;;;;;;;1.85;0.20;;;;;;;;;;6147735;23;20009;-59
2022/02/12 07:17:54;;;;;;;3.58;0.30;;;;;;;;;;6146631;23;20464;-59
2022/02/12 07:20:19;;;;;;;1.75;0.20;;;;;;;;;;6146248;23;20048;-60
2022/02/12 07:22:45;;;;;;;0.28;0.15;;;;;;;;;;6146685;23;20449;-60
2022/02/12 07:25:12;;;;;;;0.17;0.13;;;;;;;;;;6146361;23;20020;-60
2022/02/12 07:27:38;;;;;;;0.65;0.25;;;;;;;;;;6145735;23;20064;-59
2022/02/12 07:30:08;;;;;;;1.85;0.20;;;;;;;;;;6146460;23;20001;-59
2022/02/12 07:32:36;;;;;;;0.30;0.10;;;;;;;;;;6146394;23;20439;-60
2022/02/12 07:35:02;;;;;;;0.82;0.20;;;;;;;;;;6146458;23;20001;-60
2022/02/12 07:37:27;;;;;;;0.10;0.10;;;;;;;;;;6146791;23;20005;-59
2022/02/12 07:39:53;;;;;;;0.70;0.10;;;;;;;;;;6147920;23;20366;-59
2022/02/12 07:42:18;;;;;;;0.10;0.10;;;;;;;;;;6147780;23;20021;-59
2022/02/12 07:44:43;;;;;;;1.92;0.20;;;;;;;;;;6120424;23;20338;-59
2022/02/12 07:47:09;;;;;;;0.10;0.10;;;;;;;;;;6146790;23;20088;-59
2022/02/12 07:49:34;;;;;;;1.38;0.28;;;;;;;;;;6146712;23;20052;-59
2022/02/12 07:52:00;;;;;;;0.20;0.20;;;;;;;;;;6147087;23;20020;-61
2022/02/12 07:54:25;;;;;;;1.55;0.10;;;;;;;;;;6119909;23;20252;-59
2022/02/12 07:56:54;;;;;;;2.88;0.57;;;;;;;;;;6145368;23;20229;-60
2022/02/12 07:59:21;;;;;;;0.57;0.20;;;;;;;;;;6146757;23;20013;-59
2022/02/12 08:01:47;;;;;;;0.57;0.50;;;;;;;;;;6147744;23;20416;-59
2022/02/12 08:04:12;;;;;;;1.95;0.10;;;;;;;;;;6147080;23;20010;-60
2022/02/12 08:09:21;;;;;;;1.48;0.30;;;;;;;;;;6145640;23;20021;-59
2022/02/12 08:12:03;;;;;;;2.47;0.35;;;;;;;;;;6146772;23;20009;-58
2022/02/12 08:14:29;;;;;;;0.70;0.20;;;;;;;;;;6148496;23;20040;-59
2022/02/12 08:16:54;;;;;;;3.25;0.20;;;;;;;;;;6147145;23;20448;-59
2022/02/12 08:19:20;;;;;;;0.75;0.22;;;;;;;;;;6122416;23;20040;-59
2022/02/12 08:21:45;;;;;;;0.60;0.22;;;;;;;;;;6148374;23;20338;-58
2022/02/12 08:24:11;;;;;;;0.47;0.10;;;;;;;;;;6147033;23;20020;-59
2022/02/12 08:26:36;;;;;;;0.68;0.40;;;;;;;;;;6147415;23;20380;-61
2022/02/12 08:29:02;;;;;;;1.23;0.10;;;;;;;;;;6146054;23;20010;-59
2022/02/12 08:31:30;;;;;;;1.13;0.20;;;;;;;;;;6145774;23;20001;-59
2022/02/12 08:33:56;;;;;;;0.13;0.13;;;;;;;;;;6147623;23;20461;-59
2022/02/12 08:36:21;;;;;;;0.20;0.17;;;;;;;;;;6149130;23;20343;-59
2022/02/12 08:38:47;;;;;;;0.20;0.20;;;;;;;;;;6149076;23;20023;-59
2022/02/12 08:41:12;;;;;;;1.30;0.30;;;;;;;;;;6147774;23;20068;-59
2022/02/12 08:43:38;;;;;;;1.75;0.52;;;;;;;;;;6149403;23;20010;-59
2022/02/12 08:46:03;;;;;;;1.02;0.32;;;;;;;;;;6149384;23;20010;-59
2022/02/12 08:48:31;;;;;;;1.25;0.38;;;;;;;;;;6148257;23;20006;-59
2022/02/12 08:50:57;;;;;;;0.68;0.30;;;;;;;;;;6149152;23;20377;-59
2022/02/12 08:53:22;;;;;;;0.68;0.20;;;;;;;;;;6148874;23;20017;-59
2022/02/12 08:55:48;;;;;;;1.90;0.10;;;;;;;;;;6150286;23;20020;-59
2022/02/12 08:58:14;;;;;;;0.52;0.20;;;;;;;;;;6149412;23;20021;-59
2022/02/12 09:00:40;;;;;;;1.90;0.15;;;;;;;;;;6148753;23;20009;-59
2022/02/12 09:03:05;;;;;;;0.88;0.15;;;;;;;;;;6149300;23;20013;-59
2022/02/12 09:05:31;;;;;;;0.80;0.20;;;;;;;;;;6149293;23;20013;-61
2022/02/12 09:07:56;;;;;;;1.85;0.30;;;;;;;;;;6149539;23;20389;-60
2022/02/12 09:10:22;;;;;;;0.47;0.20;;;;;;;;;;6148872;23;20389;-60
2022/02/12 09:12:48;;;;;;;0.98;0.20;;;;;;;;;;6149116;23;20036;-60
2022/02/12 09:15:13;;;;;;;1.13;0.20;;;;;;;;;;6149431;23;20010;-59
2022/02/12 09:17:39;;;;;;;2.85;0.20;;;;;;;;;;6148953;23;20017;-59
2022/02/12 09:20:05;;;;;;;3.78;0.30;;;;;;;;;;6149626;23;20460;-60
2022/02/12 09:22:30;;;;;;;1.45;0.38;;;;;;;;;;6149329;23;20017;-60
2022/02/12 09:24:56;;;;;;;0.85;0.30;;;;;;;;;;6148991;23;20009;-59
2022/02/12 09:27:21;;;;;;;3.72;0.30;;;;;;;;;;6148684;23;20017;-59
2022/02/12 09:29:54;;;;;;;1.20;0.25;;;;;;;;;;6148999;23;20084;-59
2022/02/12 09:32:19;;;;;;;1.85;0.30;;;;;;;;;;6148900;23;20083;-61
2022/02/12 09:34:45;;;;;;;3.20;0.55;;;;;;;;;;6148875;23;20483;-60
2022/02/12 09:37:10;;;;;;;3.08;0.38;;;;;;;;;;6148304;23;20013;-59
2022/02/12 09:39:36;;;;;;;4.03;0.30;;;;;;;;;;6149256;23;20233;-59
2022/02/12 09:42:02;;;;;;;4.05;0.35;;;;;;;;;;6148743;23;20012;-59
2022/02/12 09:44:27;;;;;;;1.83;0.38;;;;;;;;;;6148535;23;20016;-59
2022/02/12 09:47:08;;;;;;;2.65;0.50;;;;;;;;;;6148864;23;20013;-59
2022/02/12 09:49:34;;;;;;;6.35;0.60;;;;;;;;;;6146170;23;20017;-60
2022/02/12 09:52:02;;;;;;;3.53;0.50;;;;;;;;;;6148945;23;20009;-60
2022/02/12 09:54:29;;;;;;;4.90;0.30;;;;;;;;;;6148409;23;20092;-59
2022/02/12 09:56:55;;;;;;;3.10;0.88;;;;;;;;;;6148810;23;20096;-59
2022/02/12 09:59:20;;;;;;;1.75;0.30;;;;;;;;;;6149112;23;20075;-59
2022/02/12 10:01:46;;;;;;;2.53;0.93;;;;;;;;;;6148661;23;20424;-60
2022/02/12 10:04:21;;;;;;;2.72;0.50;;;;;;;;;;6148494;23;20009;-59
2022/02/12 10:06:47;;;;;;;3.67;0.32;;;;;;;;;;6148814;23;20009;-60
2022/02/12 10:09:14;;;;;;;1.08;0.20;;;;;;;;;;6148517;23;20012;-60
2022/02/12 10:11:50;;;;;;;4.50;0.50;;;;;;;;;;6148554;23;20029;-60
2022/02/12 10:14:19;;;;;;;3.33;0.32;;;;;;;;;;6148762;23;20052;-60
2022/02/12 10:16:51;;;;;;;2.70;0.50;;;;;;;;;;6148303;23;20001;-61
2022/02/12 10:19:17;;;;;;;5.75;0.52;;;;;;;;;;6148370;23;20385;-59
2022/02/12 10:22:23;;;;;;;5.38;0.77;;;;;;;;;;6147788;23;20060;-60
2022/02/12 10:24:53;;;;;;;5.80;0.70;;;;;;;;;;6147220;23;20009;-61
2022/02/12 10:27:25;;;;;;;4.32;0.77;;;;;;;;;;6147242;23;20460;-61
2022/02/12 10:29:52;;;;;;;;;;;;;;;;;;6147980;23;20032;-62
2022/02/12 10:32:20;;;;;;;4.50;0.77;;;;;;;;;;6148450;23;19920;-61
2022/02/12 10:34:47;;;;;;;7.97;0.52;;;;;;;;;;6148333;23;20076;-62
2022/02/12 10:37:19;;;;;;;13.88;0.75;;;;;;;;;;6148293;23;20016;-62
2022/02/12 10:40:01;;;;;;;8.57;0.95;;;;;;;;;;6147648;23;20341;-62
2022/02/12 10:42:30;;;;;;;5.13;0.88;;;;;;;;;;6148311;23;20002;-62
2022/02/12 10:44:56;;;;;;;4.65;0.95;;;;;;;;;;6148271;23;20100;-63
2022/02/12 10:47:23;;;;;;;5.43;0.52;;;;;;;;;;6145261;23;20385;-65
2022/02/12 10:49:50;;;;;;;7.20;1.02;;;;;;;;;;6147220;23;20017;-65
2022/02/12 10:52:16;;;;;;;6.03;0.73;;;;;;;;;;6143355;23;20009;-63
2022/02/12 10:54:46;;;;;;;6.38;0.90;;;;;;;;;;6141885;23;20006;-64
2022/02/12 10:57:13;;;;;;;12.15;1.02;;;;;;;;;;6145609;23;20191;-64
2022/02/12 10:59:42;;;;;;;8.13;0.90;;;;;;;;;;6146007;23;20013;-64
2022/02/12 11:02:10;;;;;;;5.80;0.90;;;;;;;;;;6145977;23;20481;-64
2022/02/12 11:04:40;;;;;;;2.38;0.60;;;;;;;;;;6145925;23;20040;-64
2022/02/12 11:07:07;;;;;;;10.90;0.85;;;;;;;;;;6121242;23;20013;-65
2022/02/12 11:09:33;;;;;;;9.30;1.02;;;;;;;;;;6148616;23;20085;-64
2022/02/12 11:12:04;;;;;;;5.10;0.77;;;;;;;;;;6144030;23;20405;-64
2022/02/12 11:14:35;;;;;;;7.60;0.90;;;;;;;;;;6146405;23;20349;-64
2022/02/12 11:17:08;;;;;;;8.65;2.13;;;;;;;;;;6142666;23;20013;-65
2022/02/12 11:19:35;;;;;;;8.15;0.93;;;;;;;;;;6144962;23;20006;-64
2022/02/12 11:22:02;;;;;;;10.23;1.15;;;;;;;;;;6146214;23;20060;-64
2022/02/12 11:24:40;;;;;;;4.53;0.70;;;;;;;;;;6147066;23;20005;-64
2022/02/12 11:27:29;;;;;;;9.38;0.73;;;;;;;;;;6148081;23;20501;-64
2022/02/12 11:29:56;;;;;;;9.93;0.90;;;;;;;;;;6147307;23;20064;-64
2022/02/12 11:32:26;;;;;;;6.85;0.82;;;;;;;;;;6148266;23;20020;-65
2022/02/12 11:34:55;;;;;;;7.55;0.90;;;;;;;;;;6149355;23;20009;-64
2022/02/12 11:37:20;;;;;;;7.03;0.77;;;;;;;;;;6148468;23;20133;-63
2022/02/12 11:40:11;;;;;;;8.82;1.17;;;;;;;;;;6149264;23;20045;-63
2022/02/12 11:42:41;;;;;;;5.22;0.60;;;;;;;;;;6148701;23;20452;-64
2022/02/12 11:45:17;;;;;;;3.88;0.68;;;;;;;;;;6149230;23;20002;-63
2022/02/12 11:48:11;;;;;;;3.17;0.73;;;;;;;;;;6149648;23;20028;-64
2022/02/12 11:51:06;;;;;;;6.63;0.85;;;;;;;;;;6149618;23;20025;-63
2022/02/12 11:53:54;;;;;;;5.40;0.80;;;;;;;;;;6149505;23;20009;-64
2022/02/12 11:56:20;;;;;;;6.07;0.77;;;;;;;;;;6149841;23;20036;-64
2022/02/12 11:58:45;;;;;;;1.73;0.70;;;;;;;;;;6149552;23;20389;-64
2022/02/12 12:01:24;;;;;;;5.80;0.80;;;;;;;;;;6149430;23;20432;-64
2022/02/12 12:04:02;;;;;;;1.92;0.70;;;;;;;;;;6149995;23;20009;-64
2022/02/12 12:06:28;;;;;;;5.78;0.85;;;;;;;;;;6150135;23;20219;-63
2022/02/12 12:09:06;;;;;;;1.20;0.40;;;;;;;;;;6149512;23;20009;-64
2022/02/12 12:11:32;;;;;;;2.80;0.68;;;;;;;;;;6148761;23;20302;-64
2022/02/12 12:14:02;;;;;;;4.18;0.68;;;;;;;;;;6149291;23;20008;-63
2022/02/12 12:16:33;;;;;;;2.55;0.50;;;;;;;;;;6149197;23;20005;-65
2022/02/12 12:19:01;;;;;;;8.93;0.98;;;;;;;;;;6150576;23;20087;-64
2022/02/12 12:21:28;;;;;;;5.53;0.68;;;;;;;;;;6149431;23;20199;-64
2022/02/12 12:23:59;;;;;;;4.75;0.75;;;;;;;;;;6149549;23;20013;-64
2022/02/12 12:26:41;;;;;;;12.55;1.48;;;;;;;;;;6150190;23;20076;-64
2022/02/12 12:32:18;;;;;;;5.03;1.00;;;;;;;;;;6147835;23;20012;-63
2022/02/12 12:34:55;;;;;;;4.47;0.90;;;;;;;;;;6150458;23;20013;-63
2022/02/12 12:37:23;;;;;;;13.35;1.77;;;;;;;;;;6147572;23;20395;-62
2022/02/12 12:39:50;;;;;;;8.75;1.30;;;;;;;;;;6148416;23;20421;-64
2022/02/12 12:42:21;;;;;;;9.15;1.20;;;;;;;;;;6148793;23;20120;-64
2022/02/12 12:45:11;;;;;;;11.23;1.90;;;;;;;;;;6121982;23;20330;-63
2022/02/12 12:47:48;;;;;;;9.68;1.15;;;;;;;;;;6148007;23;20255;-64
2022/02/12 12:50:14;;;;;;;5.88;1.30;;;;;;;;;;6148061;23;20017;-63
2022/02/12 12:52:40;;;;;;;7.05;1.27;;;;;;;;;;6147949;23;20021;-62
2022/02/12 12:55:08;;;;;;;4.47;1.17;;;;;;;;;;6148071;23;20028;-61
2022/02/12 12:57:39;;;;;;;10.30;1.33;;;;;;;;;;6148791;23;20005;-63
2022/02/12 13:00:06;;;;;;;6.38;1.10;;;;;;;;;;6149269;23;20021;-63
2022/02/12 13:02:34;;;;;;;10.55;1.45;;;;;;;;;;6148084;23;20064;-64
2022/02/12 13:05:01;;;;;;;9.40;1.05;;;;;;;;;;6146815;23;20461;-63
2022/02/12 13:07:30;;;;;;;7.40;1.15;;;;;;;;;;6146639;23;20063;-65
2022/02/12 13:09:58;;;;;;;7.82;1.30;;;;;;;;;;6147555;23;20025;-62
2022/02/12 13:12:38;;;;;;;8.45;1.20;;;;;;;;;;6147639;23;20212;-63
2022/02/12 13:15:15;;;;;;;8.40;1.42;;;;;;;;;;6146500;23;20006;-64
2022/02/12 13:17:45;;;;;;;15.85;1.60;;;;;;;;;;6147073;23;20456;-63
2022/02/12 13:20:13;;;;;;;7.57;0.93;;;;;;;;;;6146613;23;20017;-63
2022/02/12 13:22:41;;;;;;;11.68;1.35;;;;;;;;;;6146722;23;20455;-64
2022/02/12 13:25:15;;;;;;;8.40;1.02;;;;;;;;;;6146899;23;20475;-65
2022/02/12 13:27:44;;;;;;;8.88;1.35;;;;;;;;;;6148460;23;20364;-64
2022/02/12 13:30:10;;;;;;;7.32;1.33;;;;;;;;;;6147479;23;19997;-63
2022/02/12 13:32:44;;;;;;;8.98;1.92;;;;;;;;;;6147361;23;20021;-64
2022/02/12 13:35:16;;;;;;;10.85;1.60;;;;;;;;;;6144979;23;20421;-63
2022/02/12 13:37:51;;;;;;;10.65;1.15;;;;;;;;;;6145442;23;20009;-63
2022/02/12 13:40:23;;;;;;;10.40;1.88;;;;;;;;;;6147479;23;20010;-63
2022/02/12 13:42:56;;;;;;;9.18;1.50;;;;;;;;;;6146413;23;20012;-63
2022/02/12 13:45:24;;;;;;;9.40;1.40;;;;;;;;;;6146197;23;20020;-64
2022/02/12 13:47:56;;;;;;;6.18;1.13;;;;;;;;;;6147001;23;20012;-63
2022/02/12 13:50:23;;;;;;;12.65;1.20;;;;;;;;;;6147228;23;20013;-63
2022/02/12 13:53:07;;;;;;;5.65;1.05;;;;;;;;;;6145641;23;20009;-63
2022/02/12 13:55:45;;;;;;;8.45;1.55;;;;;;;;;;6149438;23;20005;-63
2022/02/12 13:58:11;;;;;;;2.00;0.30;;;;;;;;;;6146988;23;20032;-62
2022/02/12 14:00:38;;;;;;;4.85;0.40;;;;;;;;;;6148108;23;20437;-61
2022/02/12 14:03:03;;;;;;;2.05;0.50;;;;;;;;;;6148112;23;20437;-62
2022/02/12 14:05:30;;;;;;;11.88;1.60;;;;;;;;;;6148656;23;20016;-63
2022/02/12 14:07:57;;;;;;;7.32;1.30;;;;;;;;;;6148104;23;20013;-62
2022/02/12 14:10:26;;;;;;;14.88;1.90;;;;;;;;;;6148144;23;20006;-63
2022/02/12 14:12:53;;;;;;;8.43;1.73;;;;;;;;;;6149254;23;20001;-62
2022/02/12 14:15:18;;;;;;;4.47;1.13;;;;;;;;;;6148210;23;20016;-63
2022/02/12 14:17:44;;;;;;;7.75;1.38;;;;;;;;;;6148401;23;20010;-63
2022/02/12 14:20:10;;;;;;;7.45;1.52;;;;;;;;;;6148348;23;20016;-63
2022/02/12 14:22:38;;;;;;;9.00;1.63;;;;;;;;;;6148502;23;20477;-63
2022/02/12 14:25:04;;;;;;;5.18;1.45;;;;;;;;;;6149078;23;20005;-62
2022/02/12 14:27:30;;;;;;;10.45;1.25;;;;;;;;;;6147782;23;20006;-63
2022/02/12 14:29:55;;;;;;;18.60;2.15;;;;;;;;;;6148313;23;20013;-63
2022/02/12 14:32:24;;;;;;;8.15;1.90;;;;;;;;;;6121710;23;20016;-63
2022/02/12 14:34:50;;;;;;;8.05;1.75;;;;;;;;;;6148458;23;20009;-64
2022/02/12 14:37:16;;;;;;;8.68;2.40;;;;;;;;;;6148834;23;20009;-63
2022/02/12 14:39:41;;;;;;;14.50;2.47;;;;;;;;;;6148379;23;20378;-63
2022/02/12 14:42:07;;;;;;;14.70;2.13;;;;;;;;;;6148074;23;20093;-63
2022/02/12 14:44:32;;;;;;;7.35;1.70;;;;;;;;;;6147933;23;20353;-64
2022/02/12 14:46:58;;;;;;;14.73;1.80;;;;;;;;;;6148076;23;20079;-63
2022/02/12 14:49:23;;;;;;;10.98;1.75;;;;;;;;;;6148275;23;20035;-62
2022/02/12 14:51:49;;;;;;;10.98;2.10;;;;;;;;;;6148216;23;20045;-63
2022/02/12 14:54:14;;;;;;;7.32;1.15;;;;;;;;;;6147543;23;20014;-63